Time;durP1;ratioP1;P1;durP2;ratioP2;P2;SDS_P1;SDS_P2;PMS_P1;PMS_P2;Temp;Humidity;BMP_temperature;BMP_pressure;BME280_temperature;BME280_humidity;BME280_pressure;Samples;Min_cycle;Max_cycle;Signal;HPM_P1;HPM_P2
2022/08/30 00:03:08;;;;;;;5.75;5.25;;;13.50;99.90;;;;;;5010706;28;20107;-78
2022/08/30 00:05:34;;;;;;;6.78;5.80;;;13.50;99.90;;;;;;5024859;28;20410;-77
2022/08/30 00:08:00;;;;;;;6.60;6.00;;;13.50;99.90;;;;;;5029413;28;20037;-77
2022/08/30 00:10:27;;;;;;;6.68;6.07;;;13.60;99.90;;;;;;5031404;28;20499;-77
2022/08/30 00:12:54;;;;;;;6.72;6.13;;;13.60;99.90;;;;;;5017177;28;20065;-77
2022/08/30 00:15:21;;;;;;;6.10;5.60;;;13.70;99.90;;;;;;5025971;28;20045;-77
2022/08/30 00:17:46;;;;;;;5.97;5.47;;;13.60;99.90;;;;;;5025062;28;20033;-77
2022/08/30 00:20:17;;;;;;;6.45;5.85;;;13.70;99.90;;;;;;5006969;28;20083;-77
2022/08/30 00:22:43;;;;;;;6.05;5.45;;;13.70;99.90;;;;;;5034186;28;20048;-77
2022/08/30 00:25:11;;;;;;;6.85;6.15;;;13.70;99.90;;;;;;5013726;28;20132;-77
2022/08/30 00:27:36;;;;;;;6.70;6.05;;;13.70;99.90;;;;;;5008322;28;20110;-77
2022/08/30 00:30:03;;;;;;;7.85;7.05;;;13.70;99.90;;;;;;4999685;28;20472;-78
2022/08/30 00:32:29;;;;;;;7.97;7.25;;;13.70;99.90;;;;;;5013121;28;20033;-78
2022/08/30 00:34:55;;;;;;;8.40;7.50;;;13.80;99.90;;;;;;5024280;28;20045;-78
2022/08/30 00:37:21;;;;;;;7.85;7.15;;;13.90;99.90;;;;;;5015659;28;20045;-78
2022/08/30 00:39:47;;;;;;;8.23;7.43;;;13.90;99.90;;;;;;5036376;28;20052;-78
2022/08/30 00:42:14;;;;;;;8.20;7.50;;;13.90;99.90;;;;;;5006366;28;20725;-78
2022/08/30 00:44:40;;;;;;;7.93;7.13;;;13.90;99.90;;;;;;5017138;28;20045;-78
2022/08/30 00:47:06;;;;;;;7.40;6.78;;;13.90;99.90;;;;;;5006431;28;20536;-78
2022/08/30 00:49:34;;;;;;;8.85;7.95;;;13.90;99.90;;;;;;5000222;28;20077;-78
2022/08/30 00:52:01;;;;;;;8.38;7.57;;;13.90;99.90;;;;;;5015545;28;20441;-78
2022/08/30 00:54:28;;;;;;;7.93;7.28;;;13.90;99.90;;;;;;5023463;28;20410;-78
2022/08/30 00:56:54;;;;;;;7.88;7.18;;;14.00;99.90;;;;;;5012055;28;20045;-78
2022/08/30 00:59:23;;;;;;;8.07;7.28;;;14.00;99.90;;;;;;5032596;28;20060;-78
2022/08/30 01:01:49;;;;;;;8.20;7.47;;;14.00;99.90;;;;;;4999684;28;20120;-77
2022/08/30 01:04:15;;;;;;;8.60;7.80;;;14.00;99.90;;;;;;5016899;28;20068;-78
2022/08/30 01:06:41;;;;;;;7.70;7.10;;;14.00;99.90;;;;;;5027634;28;20049;-78
2022/08/30 01:09:07;;;;;;;7.85;7.07;;;14.00;99.90;;;;;;5025833;28;20131;-78
2022/08/30 01:11:36;;;;;;;7.25;6.65;;;14.00;99.90;;;;;;5010306;28;20636;-78
2022/08/30 01:14:03;;;;;;;7.50;6.80;;;14.00;99.90;;;;;;5022381;28;20044;-78
2022/08/30 01:16:32;;;;;;;7.15;6.45;;;13.90;99.90;;;;;;5028249;28;20040;-79
2022/08/30 01:18:59;;;;;;;6.70;5.97;;;14.00;99.90;;;;;;5035688;28;20513;-79
2022/08/30 01:21:38;;;;;;;6.63;6.03;;;14.00;99.90;;;;;;5009295;28;20048;-78
2022/08/30 01:24:06;;;;;;;6.88;6.28;;;14.00;99.90;;;;;;5026526;28;20177;-78
2022/08/30 01:26:34;;;;;;;6.80;6.20;;;14.00;99.90;;;;;;5006686;28;20458;-78
2022/08/30 01:29:04;;;;;;;6.15;5.65;;;14.10;99.90;;;;;;5023051;28;20380;-78
2022/08/30 01:31:31;;;;;;;5.85;5.25;;;13.90;99.90;;;;;;5024118;28;20137;-78
2022/08/30 01:33:57;;;;;;;5.55;5.05;;;13.90;99.90;;;;;;5023404;28;20051;-78
2022/08/30 01:36:23;;;;;;;5.53;5.03;;;13.80;99.90;;;;;;5027247;28;20052;-78
2022/08/30 01:38:52;;;;;;;5.78;5.18;;;13.70;99.90;;;;;;4993818;28;20124;-78
2022/08/30 01:41:20;;;;;;;6.03;5.30;;;13.70;99.90;;;;;;5016117;28;20083;-78
2022/08/30 01:43:47;;;;;;;5.40;4.90;;;13.60;99.90;;;;;;5017970;28;20037;-78
2022/08/30 01:46:15;;;;;;;5.43;4.93;;;13.60;99.90;;;;;;5005314;28;20068;-78
2022/08/30 01:48:42;;;;;;;5.40;4.90;;;13.50;99.90;;;;;;5000659;28;20099;-78
2022/08/30 01:51:12;;;;;;;5.57;5.07;;;13.50;99.90;;;;;;5016379;28;20038;-78
2022/08/30 01:53:40;;;;;;;4.78;4.28;;;13.40;99.90;;;;;;5023820;28;20120;-78
2022/08/30 01:56:06;;;;;;;5.57;5.07;;;13.40;99.90;;;;;;5014023;28;20044;-79
2022/08/30 01:58:33;;;;;;;5.10;4.60;;;13.30;99.90;;;;;;5018340;28;20381;-78
2022/08/30 02:00:59;;;;;;;5.20;4.75;;;13.20;99.90;;;;;;5018569;28;20037;-78
2022/08/30 02:03:29;;;;;;;6.35;5.75;;;13.20;99.90;;;;;;5023564;28;20055;-78
2022/08/30 02:05:55;;;;;;;5.97;5.38;;;13.10;99.90;;;;;;5004234;28;20041;-78
2022/08/30 02:08:20;;;;;;;5.70;5.20;;;13.10;99.90;;;;;;5021818;28;20060;-78
2022/08/30 02:10:46;;;;;;;6.10;5.50;;;13.00;99.90;;;;;;5025050;28;20487;-78
2022/08/30 02:13:12;;;;;;;5.95;5.35;;;13.00;99.90;;;;;;5011573;28;20090;-78
2022/08/30 02:15:37;;;;;;;6.22;5.63;;;13.00;99.90;;;;;;5006989;28;20039;-78
2022/08/30 02:18:03;;;;;;;6.38;5.78;;;13.00;99.90;;;;;;5013684;28;20492;-78
2022/08/30 02:20:28;;;;;;;6.68;6.07;;;12.90;99.90;;;;;;5022778;28;20041;-78
2022/08/30 02:22:54;;;;;;;6.28;5.70;;;13.00;99.90;;;;;;4995154;28;20060;-79
2022/08/30 02:25:20;;;;;;;6.22;5.63;;;12.90;99.90;;;;;;5005560;28;20044;-78
2022/08/30 02:27:46;;;;;;;5.95;5.18;;;12.90;99.90;;;;;;5015015;28;20033;-78
2022/08/30 02:30:12;;;;;;;5.32;4.82;;;12.90;99.90;;;;;;5009628;28;20407;-79
2022/08/30 02:32:37;;;;;;;6.00;5.50;;;12.90;99.90;;;;;;5008796;28;20041;-78
2022/08/30 02:35:04;;;;;;;6.15;5.55;;;12.90;99.90;;;;;;5012821;28;20077;-78
2022/08/30 02:37:29;;;;;;;6.05;5.55;;;12.90;99.90;;;;;;5016095;28;20090;-78
2022/08/30 02:39:55;;;;;;;6.63;6.03;;;12.90;99.90;;;;;;5022685;28;20033;-78
2022/08/30 02:42:20;;;;;;;6.82;6.22;;;12.80;99.90;;;;;;4998200;28;20044;-79
2022/08/30 02:44:46;;;;;;;7.38;6.68;;;12.90;99.90;;;;;;5012500;28;20458;-78
2022/08/30 02:47:11;;;;;;;7.13;6.43;;;12.90;99.90;;;;;;5016620;28;20025;-79
2022/08/30 02:49:37;;;;;;;8.85;8.07;;;13.00;99.90;;;;;;5025660;28;20045;-78
2022/08/30 02:52:04;;;;;;;8.32;7.53;;;13.00;99.90;;;;;;5010694;28;20403;-78
2022/08/30 02:54:31;;;;;;;8.88;7.95;;;13.10;99.90;;;;;;5022111;28;20065;-79
2022/08/30 02:57:01;;;;;;;9.25;8.35;;;13.20;99.90;;;;;;5017289;28;20056;-79
2022/08/30 02:59:27;;;;;;;8.70;7.90;;;13.30;99.90;;;;;;5001246;28;20474;-79
2022/08/30 03:01:52;;;;;;;9.25;8.35;;;13.30;99.90;;;;;;5009342;28;20041;-79
2022/08/30 03:04:18;;;;;;;8.35;7.55;;;13.40;99.90;;;;;;5008421;28;20037;-79
2022/08/30 03:06:44;;;;;;;8.80;7.90;;;13.40;99.90;;;;;;5013928;28;20029;-79
2022/08/30 03:09:09;;;;;;;7.35;6.65;;;13.40;99.90;;;;;;5014007;28;20046;-78
2022/08/30 03:11:36;;;;;;;6.57;5.97;;;13.40;99.90;;;;;;5014060;28;20033;-78
2022/08/30 03:14:02;;;;;;;6.30;5.70;;;13.50;99.90;;;;;;5014794;28;20041;-78
2022/08/30 03:16:27;;;;;;;6.80;6.20;;;13.40;99.90;;;;;;5021112;28;20103;-78
2022/08/30 03:18:53;;;;;;;6.45;5.85;;;13.30;99.90;;;;;;5025201;28;20037;-78
2022/08/30 03:21:18;;;;;;;5.65;5.15;;;13.30;99.90;;;;;;5033809;28;20124;-78
2022/08/30 03:23:44;;;;;;;5.95;5.45;;;13.10;99.90;;;;;;5004562;28;20041;-78
2022/08/30 03:26:13;;;;;;;6.20;5.63;;;13.10;99.90;;;;;;5004802;28;20030;-79
2022/08/30 03:28:41;;;;;;;6.50;5.90;;;13.00;99.90;;;;;;5021651;28;20041;-79
2022/08/30 03:31:07;;;;;;;6.22;5.50;;;13.00;99.90;;;;;;5013883;28;20041;-78
2022/08/30 03:33:34;;;;;;;5.22;4.72;;;12.90;99.90;;;;;;5013921;28;20388;-79
2022/08/30 03:36:00;;;;;;;5.22;4.72;;;12.80;99.90;;;;;;5011719;28;20115;-79
2022/08/30 03:38:25;;;;;;;5.80;5.30;;;12.80;99.90;;;;;;5017487;28;20116;-78
2022/08/30 03:40:51;;;;;;;5.72;5.22;;;12.70;99.90;;;;;;5015683;28;20037;-79
2022/08/30 03:43:16;;;;;;;5.50;5.00;;;12.60;99.90;;;;;;5022678;28;20032;-78
2022/08/30 03:45:43;;;;;;;6.35;5.75;;;12.60;99.90;;;;;;5025854;28;20033;-78
2022/08/30 03:48:09;;;;;;;5.88;5.38;;;12.50;99.90;;;;;;5022497;28;20468;-79
2022/08/30 03:50:35;;;;;;;4.63;4.22;;;12.50;99.90;;;;;;5022215;28;20048;-78
2022/08/30 03:53:01;;;;;;;5.13;4.72;;;12.40;99.90;;;;;;5014023;28;20064;-79
2022/08/30 03:55:28;;;;;;;5.57;5.07;;;12.30;99.90;;;;;;5028039;28;20483;-78
2022/08/30 03:57:54;;;;;;;6.40;5.05;;;12.30;99.90;;;;;;5029106;28;20048;-78
2022/08/30 04:00:20;;;;;;;5.88;5.30;;;12.20;99.90;;;;;;5025083;28;20396;-78
2022/08/30 04:02:45;;;;;;;5.32;4.82;;;12.20;99.90;;;;;;5021218;28;20048;-78
2022/08/30 04:05:11;;;;;;;5.93;5.43;;;12.10;99.90;;;;;;5003282;28;20033;-79
2022/08/30 04:07:37;;;;;;;5.55;5.05;;;12.00;99.90;;;;;;5010087;28;20052;-78
2022/08/30 04:10:05;;;;;;;5.95;5.35;;;11.90;99.90;;;;;;5025078;28;20029;-79
2022/08/30 04:12:30;;;;;;;5.68;5.18;;;11.90;99.90;;;;;;5022685;28;20444;-79
2022/08/30 04:14:56;;;;;;;5.53;5.03;;;11.90;99.90;;;;;;5001534;28;20117;-79
2022/08/30 04:17:21;;;;;;;5.47;4.97;;;11.80;99.90;;;;;;5017688;28;20496;-78
2022/08/30 04:19:47;;;;;;;5.32;4.82;;;11.80;99.90;;;;;;4996858;28;20038;-78
2022/08/30 04:22:12;;;;;;;6.03;5.32;;;11.70;99.90;;;;;;5002549;28;20050;-78
2022/08/30 04:24:40;;;;;;;6.05;5.55;;;11.70;99.90;;;;;;4997938;28;20068;-78
2022/08/30 04:27:07;;;;;;;6.32;5.68;;;11.70;99.90;;;;;;5026519;28;20048;-78
2022/08/30 04:29:33;;;;;;;6.35;5.75;;;11.60;99.90;;;;;;5025518;28;20041;-79
2022/08/30 04:32:00;;;;;;;7.13;6.43;;;11.60;99.90;;;;;;5015062;28;20038;-78
2022/08/30 04:34:25;;;;;;;6.97;6.35;;;11.50;99.90;;;;;;5017433;28;20044;-78
2022/08/30 04:36:51;;;;;;;6.35;5.75;;;11.50;99.90;;;;;;5024634;28;20033;-79
2022/08/30 04:39:17;;;;;;;6.60;6.00;;;11.50;99.90;;;;;;5026805;28;20128;-78
2022/08/30 04:41:43;;;;;;;5.93;5.32;;;11.50;99.90;;;;;;5021687;28;20076;-79
2022/08/30 04:44:08;;;;;;;7.05;6.45;;;11.40;99.90;;;;;;5015965;28;20065;-78
2022/08/30 04:46:35;;;;;;;7.03;6.35;;;11.40;99.90;;;;;;5015514;28;20483;-78
2022/08/30 04:49:01;;;;;;;7.30;6.60;;;11.40;99.90;;;;;;5000862;28;20395;-78
2022/08/30 04:51:27;;;;;;;8.65;7.85;;;11.40;99.90;;;;;;5007331;28;20120;-79
2022/08/30 04:53:52;;;;;;;8.70;7.90;;;11.40;99.90;;;;;;5021251;28;20147;-79
2022/08/30 04:56:23;;;;;;;9.23;8.32;;;11.40;99.90;;;;;;5015022;28;20036;-79
2022/08/30 04:58:51;;;;;;;9.43;8.63;;;11.40;99.90;;;;;;5016836;28;20091;-79
2022/08/30 05:01:25;;;;;;;9.50;8.68;;;11.40;99.90;;;;;;5014303;28;20045;-78
2022/08/30 05:03:53;;;;;;;8.65;7.88;;;11.40;99.90;;;;;;5004251;28;20048;-78
2022/08/30 05:06:19;;;;;;;9.18;8.38;;;11.40;99.90;;;;;;5027918;28;20045;-79
2022/08/30 05:08:45;;;;;;;9.18;8.38;;;11.40;99.90;;;;;;5009511;28;20038;-78
2022/08/30 05:11:11;;;;;;;9.30;8.40;;;11.40;99.90;;;;;;5015231;28;20167;-79
2022/08/30 05:13:37;;;;;;;8.98;8.18;;;11.50;99.90;;;;;;5000609;28;20152;-79
2022/08/30 05:16:05;;;;;;;9.27;8.38;;;11.50;99.90;;;;;;5024349;28;20506;-79
2022/08/30 05:18:31;;;;;;;10.25;9.25;;;11.50;99.90;;;;;;4999791;28;20484;-79
2022/08/30 05:21:09;;;;;;;9.18;8.38;;;11.50;99.90;;;;;;4999400;28;20587;-78
2022/08/30 05:23:36;;;;;;;10.18;9.18;;;11.50;99.90;;;;;;4995880;28;20138;-79
2022/08/30 05:26:17;;;;;;;12.27;11.18;;;11.60;99.90;;;;;;5022335;28;20053;-79
2022/08/30 05:28:43;;;;;;;14.38;12.98;;;11.60;99.90;;;;;;5012774;28;20050;-79
2022/08/30 05:31:38;;;;;;;16.30;14.18;;;11.70;99.90;;;;;;5015094;28;20048;-79
2022/08/30 05:34:04;;;;;;;14.98;13.60;;;11.90;99.90;;;;;;5003232;28;20048;-79
2022/08/30 05:36:33;;;;;;;16.63;15.02;;;12.10;99.90;;;;;;5023475;28;20081;-79
2022/08/30 05:38:59;;;;;;;16.80;15.23;;;12.20;99.90;;;;;;4998199;28;20057;-79
2022/08/30 05:41:25;;;;;;;14.60;13.20;;;12.30;99.90;;;;;;5014260;28;20422;-79
2022/08/30 05:43:53;;;;;;;15.05;13.70;;;12.30;99.90;;;;;;5002313;28;20423;-79
2022/08/30 05:46:20;;;;;;;15.50;14.00;;;12.40;99.90;;;;;;5020137;28;20033;-78
2022/08/30 05:48:47;;;;;;;15.20;13.52;;;12.50;99.90;;;;;;5000369;28;20045;-79
2022/08/30 05:51:18;;;;;;;15.43;13.90;;;12.50;99.90;;;;;;5003497;28;20026;-79
2022/08/30 05:53:44;;;;;;;14.15;12.80;;;12.70;99.90;;;;;;5001223;28;20036;-79
2022/08/30 05:56:12;;;;;;;13.98;12.68;;;12.70;99.90;;;;;;5021270;28;20037;-79
2022/08/30 05:58:38;;;;;;;12.32;11.05;;;12.80;99.90;;;;;;5015151;28;20124;-79
2022/08/30 06:01:05;;;;;;;13.18;11.80;;;12.90;99.90;;;;;;5013777;28;20040;-79
2022/08/30 06:03:31;;;;;;;10.90;9.90;;;12.90;99.90;;;;;;5015418;28;20413;-79
2022/08/30 06:05:58;;;;;;;11.20;10.15;;;13.00;99.90;;;;;;5023058;28;20041;-78
2022/08/30 06:08:24;;;;;;;11.93;10.82;;;13.00;99.90;;;;;;5014961;28;20072;-79
2022/08/30 06:10:50;;;;;;;11.20;10.23;;;13.10;99.90;;;;;;5011931;28;20088;-79
2022/08/30 06:13:16;;;;;;;11.32;10.23;;;13.20;99.90;;;;;;5013839;28;20041;-79
2022/08/30 06:15:43;;;;;;;10.63;9.73;;;13.20;99.90;;;;;;5024801;28;20045;-78
2022/08/30 06:18:10;;;;;;;9.77;8.88;;;13.30;99.90;;;;;;5034767;28;20036;-78
2022/08/30 06:20:43;;;;;;;9.90;9.00;;;13.40;99.90;;;;;;5009321;28;20052;-78
2022/08/30 06:23:09;;;;;;;9.38;8.05;;;13.60;99.90;;;;;;5013056;28;20112;-78
2022/08/30 06:25:38;;;;;;;8.48;7.60;;;13.70;99.90;;;;;;5022688;28;20045;-79
2022/08/30 06:28:05;;;;;;;7.95;7.25;;;13.80;99.90;;;;;;5009509;28;20025;-78
2022/08/30 06:30:31;;;;;;;8.77;7.60;;;13.90;99.90;;;;;;5023965;28;20408;-78
2022/08/30 06:32:57;;;;;;;8.43;7.28;;;14.00;99.90;;;;;;5026207;28;20486;-78
2022/08/30 06:35:23;;;;;;;7.45;6.72;;;14.20;99.90;;;;;;5034430;28;20163;-78
2022/08/30 06:37:49;;;;;;;6.78;6.15;;;14.30;99.90;;;;;;5023429;28;20150;-80
2022/08/30 06:40:17;;;;;;;7.25;6.63;;;14.40;99.90;;;;;;5001812;28;20142;-80
2022/08/30 06:42:42;;;;;;;7.47;6.00;;;14.50;99.90;;;;;;5013043;28;20044;-77
2022/08/30 06:45:08;;;;;;;7.10;6.40;;;14.50;99.90;;;;;;5004840;28;20425;-80
2022/08/30 06:47:34;;;;;;;7.00;5.90;;;14.60;99.90;;;;;;4992013;28;20053;-80
2022/08/30 06:50:00;;;;;;;6.72;6.13;;;14.80;99.90;;;;;;5009468;28;20282;-80
2022/08/30 06:52:25;;;;;;;6.38;5.75;;;14.90;99.90;;;;;;5021740;28;20040;-80
2022/08/30 06:54:54;;;;;;;5.85;5.35;;;15.00;99.90;;;;;;5004344;28;20480;-80
2022/08/30 06:57:19;;;;;;;6.25;5.65;;;15.10;99.90;;;;;;4997090;28;20045;-80
2022/08/30 06:59:45;;;;;;;5.18;4.70;;;15.20;99.90;;;;;;5003808;28;20495;-80
2022/08/30 07:02:11;;;;;;;5.93;4.38;;;15.20;99.90;;;;;;5016838;28;20462;-82
2022/08/30 07:04:37;;;;;;;4.63;4.13;;;15.40;99.90;;;;;;5006879;28;20049;-81
2022/08/30 07:07:03;;;;;;;4.10;3.80;;;15.50;99.90;;;;;;5027723;28;20041;-81
2022/08/30 07:09:30;;;;;;;6.18;4.00;;;15.60;99.90;;;;;;5026514;28;20503;-81
2022/08/30 07:12:02;;;;;;;4.63;3.72;;;15.70;99.90;;;;;;4996411;28;20071;-81
2022/08/30 07:14:27;;;;;;;3.85;3.45;;;15.80;99.90;;;;;;4997968;28;20080;-81
2022/08/30 07:16:53;;;;;;;3.38;3.08;;;15.90;99.90;;;;;;4997627;28;20082;-78
2022/08/30 07:19:19;;;;;;;3.35;2.90;;;16.00;99.90;;;;;;5014324;28;20042;-81
2022/08/30 07:22:03;;;;;;;2.85;2.55;;;16.00;99.90;;;;;;5079734;22;20490;-79
2022/08/30 07:25:28;;;;;;;4.03;2.67;;;16.20;99.90;;;;;;5043948;28;20052;-79
2022/08/30 07:28:07;;;;;;;2.60;2.40;;;16.30;99.90;;;;;;5018540;28;20083;-79
2022/08/30 07:34:42;;;;;;;2.80;1.77;;;16.50;99.90;;;;;;4973897;28;20041;-79
2022/08/30 07:40:47;;;;;;;4.35;2.00;;;16.70;99.90;;;;;;5053379;28;20098;-79
2022/08/30 07:43:23;;;;;;;2.95;1.60;;;16.80;99.90;;;;;;5033778;28;20045;-77
2022/08/30 07:45:52;;;;;;;3.40;1.50;;;16.90;99.90;;;;;;5030757;28;20045;-78
2022/08/30 07:48:38;;;;;;;2.13;1.13;;;17.00;99.90;;;;;;5015343;28;20064;-78
2022/08/30 07:51:14;;;;;;;2.15;1.40;;;17.00;99.90;;;;;;5035046;28;20120;-77
2022/08/30 07:53:47;;;;;;;1.75;1.20;;;17.10;99.90;;;;;;5050950;28;20044;-77
2022/08/30 07:56:16;;;;;;;1.42;1.08;;;17.20;99.90;;;;;;5034870;28;20037;-78
2022/08/30 07:58:42;;;;;;;1.70;1.15;;;17.20;99.90;;;;;;5027680;28;20495;-78
2022/08/30 08:01:12;;;;;;;2.10;1.00;;;17.30;99.90;;;;;;5039606;28;20120;-78
2022/08/30 08:03:45;;;;;;;1.45;1.00;;;17.40;99.90;;;;;;5038404;28;20040;-79
2022/08/30 08:06:16;;;;;;;2.00;0.95;;;17.50;99.90;;;;;;5037369;28;20025;-78
2022/08/30 08:08:45;;;;;;;1.42;0.90;;;17.60;99.90;;;;;;5038210;28;20033;-79
2022/08/30 08:11:18;;;;;;;1.83;1.05;;;17.60;99.90;;;;;;5032462;28;20040;-78
2022/08/30 08:13:46;;;;;;;2.33;0.90;;;17.80;99.90;;;;;;5032093;28;20058;-79
2022/08/30 08:16:13;;;;;;;2.35;1.13;;;17.90;99.90;;;;;;5037399;28;20135;-78
2022/08/30 08:18:43;;;;;;;1.35;0.93;;;18.00;99.90;;;;;;5029951;28;20041;-78
2022/08/30 08:21:19;;;;;;;1.95;1.02;;;18.10;99.90;;;;;;5036546;28;20037;-78
2022/08/30 08:23:48;;;;;;;1.63;1.00;;;18.20;99.90;;;;;;5039685;28;20048;-79
2022/08/30 08:26:18;;;;;;;1.70;0.80;;;18.30;99.90;;;;;;5039282;28;20395;-79
2022/08/30 08:28:48;;;;;;;1.48;1.00;;;18.40;99.90;;;;;;5037068;28;20037;-80
2022/08/30 08:31:21;;;;;;;1.17;0.98;;;18.50;99.90;;;;;;5034027;28;20040;-78
2022/08/30 08:33:51;;;;;;;1.60;0.85;;;18.60;99.90;;;;;;5040574;28;20582;-79
2022/08/30 08:36:20;;;;;;;1.33;0.98;;;19.20;99.80;;;;;;5040644;28;20037;-80
2022/08/30 08:38:46;;;;;;;1.55;0.80;;;19.70;94.60;;;;;;5036756;28;20117;-78
2022/08/30 08:41:26;;;;;;;1.52;0.88;;;20.30;94.50;;;;;;5039591;28;20047;-77
2022/08/30 08:43:52;;;;;;;1.33;0.90;;;21.00;93.50;;;;;;5037471;28;20453;-78
2022/08/30 08:46:59;;;;;;;0.93;0.80;;;21.50;93.00;;;;;;5039795;28;20125;-78
2022/08/30 08:49:26;;;;;;;1.67;1.23;;;22.10;90.10;;;;;;5013261;28;20365;-80
2022/08/30 08:54:55;;;;;;;1.95;0.80;;;22.90;84.10;;;;;;5052471;28;20041;-80
2022/08/30 08:57:21;;;;;;;1.35;0.90;;;23.20;82.40;;;;;;5036079;28;20041;-80
2022/08/30 08:59:49;;;;;;;1.80;0.93;;;23.30;80.90;;;;;;5039889;28;20098;-79
2022/08/30 09:02:50;;;;;;;1.33;0.82;;;23.30;79.00;;;;;;5039591;28;20033;-80
2022/08/30 09:05:44;;;;;;;1.27;1.00;;;23.30;73.50;;;;;;5043351;28;20396;-80
2022/08/30 09:08:19;;;;;;;1.38;0.90;;;23.20;74.40;;;;;;5042939;28;20114;-79
2022/08/30 09:11:12;;;;;;;1.45;0.80;;;23.20;74.90;;;;;;5045057;28;20079;-79
2022/08/30 09:13:44;;;;;;;1.50;0.90;;;23.30;70.00;;;;;;5042258;28;20033;-79
2022/08/30 09:16:46;;;;;;;1.73;1.05;;;23.40;71.80;;;;;;5046775;28;20059;-80
2022/08/30 09:19:35;;;;;;;0.90;0.80;;;23.40;73.10;;;;;;5054598;28;20037;-78
2022/08/30 09:22:33;;;;;;;1.40;0.95;;;23.50;72.90;;;;;;5054006;22;20053;-80
2022/08/30 09:25:33;;;;;;;1.02;0.93;;;23.40;69.20;;;;;;5043191;28;20056;-80
2022/08/30 09:28:19;;;;;;;0.65;0.60;;;23.30;70.00;;;;;;5033020;28;20029;-79
2022/08/30 09:31:23;;;;;;;2.38;0.90;;;23.40;70.50;;;;;;5040838;28;20506;-80
2022/08/30 09:34:00;;;;;;;;;;;23.50;68.90;;;;;;5039990;28;20438;-79
2022/08/30 09:36:32;;;;;;;1.60;0.85;;;23.50;71.00;;;;;;5042224;28;19916;-80
2022/08/30 09:39:36;;;;;;;1.00;0.70;;;23.60;71.00;;;;;;5036220;28;20640;-79
2022/08/30 09:42:27;;;;;;;1.15;0.75;;;23.70;69.70;;;;;;5035990;28;20044;-80
2022/08/30 09:45:09;;;;;;;2.17;1.00;;;23.80;66.20;;;;;;5034745;28;20477;-79
2022/08/30 09:47:44;;;;;;;1.02;0.70;;;23.80;67.30;;;;;;5048804;28;20045;-78
2022/08/30 09:50:29;;;;;;;1.13;0.70;;;23.80;66.80;;;;;;5036474;28;20033;-79
2022/08/30 09:53:09;;;;;;;1.55;1.00;;;23.60;64.30;;;;;;5017268;28;20492;-80
2022/08/30 09:59:44;;;;;;;1.38;0.80;;;23.60;62.90;;;;;;5043820;28;20040;-79
2022/08/30 10:02:50;;;;;;;1.45;0.80;;;23.60;63.20;;;;;;5053591;28;20044;-77
2022/08/30 10:06:00;;;;;;;1.10;0.50;;;23.50;62.30;;;;;;5037023;28;20091;-80
2022/08/30 10:09:09;;;;;;;;;;;;;;;;;;;;;
2022/08/30 10:12:19;;;;;;;1.08;0.80;;;23.70;62.70;;;;;;5041206;28;20041;-79
2022/08/30 10:15:25;;;;;;;0.95;0.60;;;23.60;62.60;;;;;;5026464;28;20041;-80
2022/08/30 10:18:37;;;;;;;1.08;0.70;;;23.60;63.00;;;;;;5026321;28;20029;-80
2022/08/30 10:21:24;;;;;;;1.40;0.65;;;23.90;61.90;;;;;;5032361;28;20040;-80
2022/08/30 10:24:22;;;;;;;0.90;0.60;;;24.00;63.00;;;;;;5028562;28;20033;-77
2022/08/30 10:27:01;;;;;;;1.35;0.68;;;24.20;62.20;;;;;;5042960;28;20043;-79
2022/08/30 10:29:53;;;;;;;1.50;0.70;;;24.30;61.00;;;;;;5051288;28;20041;-78
2022/08/30 10:32:45;;;;;;;1.08;0.70;;;24.30;62.20;;;;;;5035300;28;20064;-80
2022/08/30 10:35:29;;;;;;;1.35;0.63;;;24.30;61.20;;;;;;5034733;28;20180;-80
2022/08/30 10:38:43;;;;;;;0.77;0.50;;;24.40;61.40;;;;;;5028093;28;20419;-83
2022/08/30 10:41:33;;;;;;;0.95;0.65;;;24.40;58.30;;;;;;5034304;28;20041;-82
2022/08/30 10:47:50;;;;;;;0.60;0.50;;;24.40;60.50;;;;;;5048099;28;20032;-83
2022/08/30 10:50:50;;;;;;;0.95;0.60;;;24.70;59.70;;;;;;5032056;28;20087;-79
2022/08/30 10:53:49;;;;;;;0.80;0.60;;;24.80;59.60;;;;;;5023673;28;20048;-78
2022/08/30 10:56:34;;;;;;;0.98;0.70;;;24.80;61.00;;;;;;5046337;28;20059;-85
2022/08/30 10:59:10;;;;;;;0.77;0.57;;;24.90;58.40;;;;;;5034203;28;20040;-80
2022/08/30 11:02:06;;;;;;;0.90;0.60;;;24.90;57.90;;;;;;5034046;28;20052;-82
2022/08/30 11:05:00;;;;;;;1.77;0.70;;;25.00;59.20;;;;;;5027289;28;20033;-80
2022/08/30 11:07:49;;;;;;;1.10;0.75;;;25.10;56.40;;;;;;5036059;28;20120;-80
2022/08/30 11:11:14;;;;;;;;;;;;;;;;;;;;;
2022/08/30 11:14:07;;;;;;;2.05;0.60;;;24.80;58.80;;;;;;4973053;28;20101;-80
2022/08/30 11:17:30;;;;;;;0.90;0.50;;;25.00;57.80;;;;;;4940137;28;20055;-86
2022/08/30 11:24:20;;;;;;;0.60;0.60;;;25.10;56.50;;;;;;4876330;29;20530;-83
2022/08/30 11:45:23;;;;;;;1.38;0.70;;;25.10;56.70;;;;;;5135488;22;20084;-83
2022/08/30 11:49:06;;;;;;;0.85;0.57;;;25.20;57.80;;;;;;4900873;29;20569;-84
2022/08/30 11:52:35;;;;;;;1.58;0.65;;;25.20;56.00;;;;;;4900791;29;20079;-84
2022/08/30 12:18:26;;;;;;;1.25;0.60;;;26.00;55.00;;;;;;4862467;29;20052;-81
2022/08/30 12:20:11;;;;;;;;;;;;;;;;;;;;;
2022/08/30 12:44:22;;;;;;;1.08;0.70;;;26.90;51.80;;;;;;5826908;22;20061;-82
2022/08/30 12:54:29;;;;;;;;;;;;;;;;;;;;;
2022/08/30 12:57:42;;;;;;;1.70;0.60;;;26.60;54.10;;;;;;5015706;28;20052;-82
2022/08/30 13:01:25;;;;;;;0.90;0.60;;;26.90;52.50;;;;;;4991414;28;20042;-83
2022/08/30 13:04:30;;;;;;;0.95;0.50;;;27.00;52.30;;;;;;4931771;29;20148;-81
2022/08/30 13:07:39;;;;;;;1.25;0.85;;;26.90;52.90;;;;;;4935463;29;20065;-82
2022/08/30 13:11:28;;;;;;;;;;;;;;;;;;;;;
2022/08/30 13:14:42;;;;;;;1.67;0.75;;;26.50;52.90;;;;;;4979581;28;20062;-83
2022/08/30 13:18:23;;;;;;;1.25;0.63;;;26.30;51.50;;;;;;4979677;28;20505;-82
2022/08/30 13:24:30;;;;;;;;;;;;;;;;;;;;;
2022/08/30 13:27:41;;;;;;;2.22;0.60;;;26.00;53.70;;;;;;4976992;28;20059;-81
2022/08/30 13:30:28;;;;;;;0.90;0.60;;;26.10;54.20;;;;;;4958367;28;20118;-83
2022/08/30 13:33:08;;;;;;;0.70;0.52;;;26.40;54.00;;;;;;4936271;28;20040;-82
2022/08/30 13:36:12;;;;;;;;;;;;;;;;;;;;;
2022/08/30 13:39:36;;;;;;;1.95;0.63;;;26.20;52.60;;;;;;4970093;28;20402;-78
2022/08/30 13:42:33;;;;;;;1.42;0.60;;;26.00;52.90;;;;;;4899685;29;20044;-79
2022/08/30 13:45:10;;;;;;;;;;;;;;;;;;;;;
2022/08/30 13:47:50;;;;;;;1.13;0.50;;;26.00;53.80;;;;;;5033187;28;20507;-79
2022/08/30 13:53:21;;;;;;;0.68;0.60;;;26.30;53.20;;;;;;5047519;28;20463;-81
2022/08/30 13:56:24;;;;;;;1.75;0.50;;;26.20;53.00;;;;;;5035569;28;20075;-79
2022/08/30 14:02:01;;;;;;;0.73;0.50;;;25.80;54.00;;;;;;5025777;28;20044;-80
2022/08/30 14:04:47;;;;;;;0.40;0.40;;;25.70;54.00;;;;;;5012995;28;20029;-77
2022/08/30 14:07:29;;;;;;;0.65;0.50;;;25.50;54.70;;;;;;5018631;28;20453;-78
2022/08/30 14:09:56;;;;;;;2.38;0.57;;;25.60;55.90;;;;;;5011415;28;20040;-80
2022/08/30 14:12:39;;;;;;;1.13;0.70;;;25.60;55.10;;;;;;5017821;28;20043;-78
2022/08/30 14:15:20;;;;;;;1.13;0.50;;;25.40;55.00;;;;;;5008121;28;20047;-81
2022/08/30 14:17:53;;;;;;;1.20;0.77;;;25.40;54.50;;;;;;5013581;28;20491;-79
2022/08/30 14:20:28;;;;;;;0.68;0.40;;;25.40;55.60;;;;;;5019466;28;20514;-78
2022/08/30 14:22:57;;;;;;;0.60;0.50;;;25.40;54.90;;;;;;5012671;28;20075;-79
2022/08/30 14:25:36;;;;;;;0.60;0.40;;;25.20;54.20;;;;;;5019043;28;20087;-79
2022/08/30 14:28:29;;;;;;;0.73;0.60;;;24.90;54.40;;;;;;5016357;28;20033;-80
2022/08/30 14:31:08;;;;;;;0.70;0.50;;;24.60;55.60;;;;;;5015592;28;20083;-79
2022/08/30 14:33:39;;;;;;;1.30;0.60;;;24.40;56.00;;;;;;4998797;28;20323;-82
2022/08/30 14:36:32;;;;;;;0.88;0.47;;;24.10;56.90;;;;;;5011647;28;20045;-79
2022/08/30 14:39:22;;;;;;;1.08;0.40;;;24.00;58.10;;;;;;5011980;28;20045;-79
2022/08/30 14:41:57;;;;;;;0.98;0.65;;;23.90;57.20;;;;;;5019952;28;20041;-78
2022/08/30 14:45:05;;;;;;;1.65;0.50;;;23.80;57.30;;;;;;5015601;28;20385;-79
2022/08/30 14:47:37;;;;;;;0.90;0.55;;;23.70;57.50;;;;;;5013089;28;20088;-78
2022/08/30 14:50:03;;;;;;;0.90;0.50;;;23.60;57.90;;;;;;5001803;28;20036;-79
2022/08/30 14:52:41;;;;;;;0.63;0.50;;;23.40;58.50;;;;;;5018793;28;20045;-79
2022/08/30 14:55:28;;;;;;;0.50;0.43;;;23.40;59.10;;;;;;5034255;28;20410;-79
2022/08/30 14:58:51;;;;;;;;;;;;;;;;;;;;;
2022/08/30 15:01:21;;;;;;;1.00;0.60;;;23.30;59.20;;;;;;5014360;28;20041;-78
2022/08/30 15:03:48;;;;;;;0.93;0.60;;;23.30;59.80;;;;;;5016994;28;20041;-77
2022/08/30 15:09:27;;;;;;;1.15;0.70;;;23.10;59.70;;;;;;5030475;28;20540;-80
2022/08/30 15:11:58;;;;;;;0.80;0.52;;;23.10;59.60;;;;;;5273460;23;20057;-78
2022/08/30 15:14:33;;;;;;;1.17;0.70;;;23.10;59.50;;;;;;5021318;28;20049;-78
2022/08/30 15:17:03;;;;;;;0.90;0.60;;;23.00;59.70;;;;;;5015842;28;20037;-78
2022/08/30 15:19:41;;;;;;;0.50;0.50;;;23.00;59.90;;;;;;5038826;28;20061;-78
2022/08/30 15:22:10;;;;;;;0.88;0.70;;;23.00;60.30;;;;;;4994054;28;20033;-79
2022/08/30 15:24:36;;;;;;;0.90;0.60;;;23.00;61.10;;;;;;5036263;23;20560;-75